sensor_id;sensor_type;location;lat;lon;timestamp;pressure;altitude;pressure_sealevel;temperature;humidity
81622;BME280;71029;50.742;7.090;2023-07-22T00:00:30;100975.97;;;19.96;54.91
81622;BME280;71029;50.742;7.090;2023-07-22T00:02:57;100971.59;;;19.95;54.84
81622;BME280;71029;50.742;7.090;2023-07-22T00:05:24;100966.41;;;19.93;54.83
81622;BME280;71029;50.742;7.090;2023-07-22T00:07:51;100966.41;;;19.93;55.21
81622;BME280;71029;50.742;7.090;2023-07-22T00:10:18;100951.03;;;19.94;54.84
81622;BME280;71029;50.742;7.090;2023-07-22T00:12:45;100961.84;;;19.94;55.00
81622;BME280;71029;50.742;7.090;2023-07-22T00:15:12;100960.19;;;19.93;55.29
81622;BME280;71029;50.742;7.090;2023-07-22T00:17:39;100961.22;;;19.92;54.94
81622;BME280;71029;50.742;7.090;2023-07-22T00:20:07;100966.63;;;19.92;55.20
81622;BME280;71029;50.742;7.090;2023-07-22T00:22:40;100968.50;;;19.91;55.05
81622;BME280;71029;50.742;7.090;2023-07-22T00:25:07;100972.66;;;19.94;55.18
81622;BME280;71029;50.742;7.090;2023-07-22T00:27:41;100968.91;;;19.95;55.03
81622;BME280;71029;50.742;7.090;2023-07-22T00:30:08;100973.69;;;19.93;54.94
81622;BME280;71029;50.742;7.090;2023-07-22T00:32:35;100972.03;;;19.92;54.73
81622;BME280;71029;50.742;7.090;2023-07-22T00:35:06;100971.00;;;19.93;54.90
81622;BME280;71029;50.742;7.090;2023-07-22T00:37:33;100974.53;;;19.93;54.87
81622;BME280;71029;50.742;7.090;2023-07-22T00:40:03;100969.13;;;19.93;54.57
81622;BME280;71029;50.742;7.090;2023-07-22T00:42:38;100971.00;;;19.93;54.87
81622;BME280;71029;50.742;7.090;2023-07-22T00:45:06;100969.94;;;19.94;54.76
81622;BME280;71029;50.742;7.090;2023-07-22T00:47:34;100968.72;;;19.90;54.95
81622;BME280;71029;50.742;7.090;2023-07-22T00:50:02;100977.44;;;19.92;54.56
81622;BME280;71029;50.742;7.090;2023-07-22T00:52:29;100974.13;;;19.90;54.60
81622;BME280;71029;50.742;7.090;2023-07-22T00:54:56;100983.88;;;19.91;54.94
81622;BME280;71029;50.742;7.090;2023-07-22T00:57:22;100975.13;;;19.89;54.96
81622;BME280;71029;50.742;7.090;2023-07-22T00:59:49;100984.28;;;19.88;54.76
81622;BME280;71029;50.742;7.090;2023-07-22T01:02:16;100972.44;;;19.89;54.49
81622;BME280;71029;50.742;7.090;2023-07-22T01:04:43;100974.31;;;19.88;54.67
81622;BME280;71029;50.742;7.090;2023-07-22T01:07:10;100978.88;;;19.88;54.69
81622;BME280;71029;50.742;7.090;2023-07-22T01:09:41;100979.94;;;19.87;54.45
81622;BME280;71029;50.742;7.090;2023-07-22T01:12:09;100980.75;;;19.87;54.71
81622;BME280;71029;50.742;7.090;2023-07-22T01:14:38;100984.28;;;19.88;54.76
81622;BME280;71029;50.742;7.090;2023-07-22T01:17:06;100983.47;;;19.87;54.46
81622;BME280;71029;50.742;7.090;2023-07-22T01:19:34;100967.47;;;19.86;54.72
81622;BME280;71029;50.742;7.090;2023-07-22T01:22:03;100971.00;;;19.86;54.59
81622;BME280;71029;50.742;7.090;2023-07-22T01:24:38;100964.75;;;19.86;54.61
81622;BME280;71029;50.742;7.090;2023-07-22T01:27:08;100969.34;;;19.85;54.31
81622;BME280;71029;50.742;7.090;2023-07-22T01:29:36;100960.41;;;19.84;54.69
81622;BME280;71029;50.742;7.090;2023-07-22T01:32:03;100970.16;;;19.86;54.64
81622;BME280;71029;50.742;7.090;2023-07-22T01:34:29;100963.09;;;19.84;54.54
81622;BME280;71029;50.742;7.090;2023-07-22T01:36:58;100966.03;;;19.83;54.55
81622;BME280;71029;50.742;7.090;2023-07-22T01:39:24;100958.75;;;19.83;54.24
81622;BME280;71029;50.742;7.090;2023-07-22T01:41:51;100963.53;;;19.81;54.32
81622;BME280;71029;50.742;7.090;2023-07-22T01:44:17;100960.84;;;19.81;54.66
81622;BME280;71029;50.742;7.090;2023-07-22T01:46:43;100961.66;;;19.82;54.36
81622;BME280;71029;50.742;7.090;2023-07-22T01:49:11;100957.28;;;19.81;54.80
81622;BME280;71029;50.742;7.090;2023-07-22T01:51:39;100954.38;;;19.82;54.56
81622;BME280;71029;50.742;7.090;2023-07-22T01:54:09;100953.72;;;19.80;54.62
81622;BME280;71029;50.742;7.090;2023-07-22T01:56:37;100953.72;;;19.80;54.35
81622;BME280;71029;50.742;7.090;2023-07-22T01:59:03;100952.72;;;19.81;54.25
81622;BME280;71029;50.742;7.090;2023-07-22T02:01:30;100949.16;;;19.81;54.39
81622;BME280;71029;50.742;7.090;2023-07-22T02:03:57;100949.38;;;19.79;54.49
81622;BME280;71029;50.742;7.090;2023-07-22T02:06:24;100942.31;;;19.78;54.72
81622;BME280;71029;50.742;7.090;2023-07-22T02:08:51;100946.88;;;19.78;54.46
81622;BME280;71029;50.742;7.090;2023-07-22T02:11:17;100949.59;;;19.78;54.37
81622;BME280;71029;50.742;7.090;2023-07-22T02:13:44;100952.50;;;19.83;54.04
81622;BME280;71029;50.742;7.090;2023-07-22T02:16:11;100948.31;;;19.80;54.19
81622;BME280;71029;50.742;7.090;2023-07-22T02:18:40;100942.31;;;19.78;54.26
81622;BME280;71029;50.742;7.090;2023-07-22T02:21:07;100951.47;;;19.77;53.91
81622;BME280;71029;50.742;7.090;2023-07-22T02:23:33;100951.88;;;19.81;54.00
81622;BME280;71029;50.742;7.090;2023-07-22T02:26:01;100951.47;;;19.77;54.01
81622;BME280;71029;50.742;7.090;2023-07-22T02:28:27;100950.19;;;19.80;53.83
81622;BME280;71029;50.742;7.090;2023-07-22T02:30:54;100946.06;;;19.77;54.29
81622;BME280;71029;50.742;7.090;2023-07-22T02:33:21;100941.25;;;19.79;53.93
81622;BME280;71029;50.742;7.090;2023-07-22T02:35:50;100942.31;;;19.78;54.21
81622;BME280;71029;50.742;7.090;2023-07-22T02:38:17;100935.25;;;19.77;54.19
81622;BME280;71029;50.742;7.090;2023-07-22T02:40:44;100939.00;;;19.76;54.17
81622;BME280;71029;50.742;7.090;2023-07-22T02:43:10;100940.66;;;19.77;54.02
81622;BME280;71029;50.742;7.090;2023-07-22T02:45:37;100946.28;;;19.76;53.89
81622;BME280;71029;50.742;7.090;2023-07-22T02:48:04;100945.44;;;19.75;53.84
81622;BME280;71029;50.742;7.090;2023-07-22T02:50:31;100948.16;;;19.75;53.89
81622;BME280;71029;50.742;7.090;2023-07-22T02:52:57;100948.38;;;19.74;54.38
81622;BME280;71029;50.742;7.090;2023-07-22T02:55:24;100952.28;;;19.71;54.10
81622;BME280;71029;50.742;7.090;2023-07-22T02:57:50;100943.16;;;19.72;53.85
81622;BME280;71029;50.742;7.090;2023-07-22T03:00:18;100955.00;;;19.71;53.93
81622;BME280;71029;50.742;7.090;2023-07-22T03:02:52;100945.22;;;19.70;54.07
81622;BME280;71029;50.742;7.090;2023-07-22T03:05:19;100949.81;;;19.70;54.05
81622;BME280;71029;50.742;7.090;2023-07-22T03:07:47;100946.88;;;19.71;54.14
81622;BME280;71029;50.742;7.090;2023-07-22T03:10:14;100944.63;;;19.68;54.35
81622;BME280;71029;50.742;7.090;2023-07-22T03:12:41;100955.44;;;19.68;53.87
81622;BME280;71029;50.742;7.090;2023-07-22T03:15:07;100956.47;;;19.67;53.73
81622;BME280;71029;50.742;7.090;2023-07-22T03:17:36;100957.31;;;19.68;53.76
81622;BME280;71029;50.742;7.090;2023-07-22T03:20:04;100954.38;;;19.69;53.91
81622;BME280;71029;50.742;7.090;2023-07-22T03:22:40;100960.22;;;19.66;53.97
81622;BME280;71029;50.742;7.090;2023-07-22T03:25:09;100956.69;;;19.66;53.97
81622;BME280;71029;50.742;7.090;2023-07-22T03:27:37;100959.41;;;19.66;54.02
81622;BME280;71029;50.742;7.090;2023-07-22T03:30:04;100951.06;;;19.67;53.62
81622;BME280;71029;50.742;7.090;2023-07-22T03:32:34;100945.06;;;19.65;53.61
81622;BME280;71029;50.742;7.090;2023-07-22T03:35:01;100949.59;;;19.65;53.91
81622;BME280;71029;50.742;7.090;2023-07-22T03:37:29;100946.91;;;19.65;54.15
81622;BME280;71029;50.742;7.090;2023-07-22T03:39:55;100944.84;;;19.67;53.70
81622;BME280;71029;50.742;7.090;2023-07-22T03:42:21;100946.91;;;19.65;53.71
81622;BME280;71029;50.742;7.090;2023-07-22T03:44:48;100950.47;;;19.65;53.46
81622;BME280;71029;50.742;7.090;2023-07-22T03:47:14;100952.94;;;19.67;53.31
81622;BME280;71029;50.742;7.090;2023-07-22T03:49:41;100955.44;;;19.68;53.51
81622;BME280;71029;50.742;7.090;2023-07-22T03:52:07;100955.84;;;19.65;53.67
81622;BME280;71029;50.742;7.090;2023-07-22T03:54:34;100952.50;;;19.63;53.88
81622;BME280;71029;50.742;7.090;2023-07-22T03:57:01;100953.56;;;19.62;53.63
81622;BME280;71029;50.742;7.090;2023-07-22T03:59:28;100952.72;;;19.62;53.89
81622;BME280;71029;50.742;7.090;2023-07-22T04:01:54;100950.25;;;19.60;53.50
81622;BME280;71029;50.742;7.090;2023-07-22T04:04:21;100949.19;;;19.61;53.64
81622;BME280;71029;50.742;7.090;2023-07-22T04:06:47;100955.66;;;19.60;53.76
81622;BME280;71029;50.742;7.090;2023-07-22T04:09:14;100947.97;;;19.57;53.84
81622;BME280;71029;50.742;7.090;2023-07-22T04:11:41;100946.94;;;19.58;53.56
81622;BME280;71029;50.742;7.090;2023-07-22T04:14:07;100947.09;;;19.56;53.72
81622;BME280;71029;50.742;7.090;2023-07-22T04:16:34;100943.41;;;19.58;53.58
81622;BME280;71029;50.742;7.090;2023-07-22T04:19:00;100944.41;;;19.56;53.63
81622;BME280;71029;50.742;7.090;2023-07-22T04:21:27;100946.09;;;19.58;53.77
81622;BME280;71029;50.742;7.090;2023-07-22T04:23:54;100941.88;;;19.55;53.55
81622;BME280;71029;50.742;7.090;2023-07-22T04:26:21;100941.72;;;19.56;53.56
81622;BME280;71029;50.742;7.090;2023-07-22T04:28:47;100942.56;;;19.57;53.63
81622;BME280;71029;50.742;7.090;2023-07-22T04:31:14;100949.81;;;19.56;53.87
81622;BME280;71029;50.742;7.090;2023-07-22T04:33:40;100949.81;;;19.56;53.63
81622;BME280;71029;50.742;7.090;2023-07-22T04:36:08;100946.47;;;19.54;53.53
81622;BME280;71029;50.742;7.090;2023-07-22T04:38:34;100941.72;;;19.56;53.48
81622;BME280;71029;50.742;7.090;2023-07-22T04:41:02;100948.13;;;19.55;53.15
81622;BME280;71029;50.742;7.090;2023-07-22T04:43:30;100947.28;;;19.55;53.29
81622;BME280;71029;50.742;7.090;2023-07-22T04:45:56;100951.66;;;19.56;53.76
81622;BME280;71029;50.742;7.090;2023-07-22T04:48:22;100952.09;;;19.53;53.68
81622;BME280;71029;50.742;7.090;2023-07-22T04:50:50;100951.66;;;19.56;53.48
81622;BME280;71029;50.742;7.090;2023-07-22T04:53:17;100953.94;;;19.52;53.43
81622;BME280;71029;50.742;7.090;2023-07-22T04:55:44;100957.47;;;19.53;53.70
81622;BME280;71029;50.742;7.090;2023-07-22T04:58:10;100958.53;;;19.52;53.65
81622;BME280;71029;50.742;7.090;2023-07-22T05:00:37;100956.88;;;19.51;53.46
81622;BME280;71029;50.742;7.090;2023-07-22T05:03:04;100963.94;;;19.52;53.74
81622;BME280;71029;50.742;7.090;2023-07-22T05:05:32;100955.81;;;19.52;53.61
81622;BME280;71029;50.742;7.090;2023-07-22T05:07:58;100965.38;;;19.54;53.64
81622;BME280;71029;50.742;7.090;2023-07-22T05:10:25;100961.00;;;19.53;53.33
81622;BME280;71029;50.742;7.090;2023-07-22T05:12:51;100965.16;;;19.56;53.56
81622;BME280;71029;50.742;7.090;2023-07-22T05:15:18;100965.59;;;19.53;53.70
81622;BME280;71029;50.742;7.090;2023-07-22T05:17:44;100961.63;;;19.55;53.79
81622;BME280;71029;50.742;7.090;2023-07-22T05:20:11;100960.81;;;19.55;53.64
81622;BME280;71029;50.742;7.090;2023-07-22T05:22:39;100961.84;;;19.54;53.63
81622;BME280;71029;50.742;7.090;2023-07-22T05:25:07;100959.56;;;19.51;53.63
81622;BME280;71029;50.742;7.090;2023-07-22T05:27:34;100959.56;;;19.51;53.54
81622;BME280;71029;50.742;7.090;2023-07-22T05:30:01;100958.53;;;19.52;53.47
81622;BME280;71029;50.742;7.090;2023-07-22T05:32:28;100963.50;;;19.55;53.34
81622;BME280;71029;50.742;7.090;2023-07-22T05:34:59;100963.94;;;19.52;53.26
81622;BME280;71029;50.742;7.090;2023-07-22T05:37:27;100958.53;;;19.52;53.54
81622;BME280;71029;50.742;7.090;2023-07-22T05:39:54;100961.00;;;19.53;53.57
81622;BME280;71029;50.742;7.090;2023-07-22T05:42:20;100957.47;;;19.53;53.17
81622;BME280;71029;50.742;7.090;2023-07-22T05:44:48;100963.13;;;19.58;53.07
81622;BME280;71029;50.742;7.090;2023-07-22T05:47:14;100960.44;;;19.58;53.24
81622;BME280;71029;50.742;7.090;2023-07-22T05:49:44;100954.00;;;19.59;53.17
81622;BME280;71029;50.742;7.090;2023-07-22T05:52:11;100961.06;;;19.60;53.17
81622;BME280;71029;50.742;7.090;2023-07-22T05:54:37;100952.50;;;19.63;52.84
81622;BME280;71029;50.742;7.090;2023-07-22T05:57:04;100957.69;;;19.65;52.97
81622;BME280;71029;50.742;7.090;2023-07-22T05:59:31;100956.69;;;19.66;53.10
81622;BME280;71029;50.742;7.090;2023-07-22T06:01:58;100958.56;;;19.65;52.87
81622;BME280;71029;50.742;7.090;2023-07-22T06:04:25;100955.84;;;19.65;53.35
81622;BME280;71029;50.742;7.090;2023-07-22T06:06:51;100956.47;;;19.67;53.01
81622;BME280;71029;50.742;7.090;2023-07-22T06:09:18;100947.31;;;19.68;52.78
81622;BME280;71029;50.742;7.090;2023-07-22T06:11:44;100954.16;;;19.71;53.02
81622;BME280;71029;50.742;7.090;2023-07-22T06:14:11;100956.66;;;19.72;52.95
81622;BME280;71029;50.742;7.090;2023-07-22T06:16:38;100958.34;;;19.73;52.60
81622;BME280;71029;50.742;7.090;2023-07-22T06:19:05;100962.88;;;19.73;52.92
81622;BME280;71029;50.742;7.090;2023-07-22T06:21:31;100970.00;;;19.74;52.67
81622;BME280;71029;50.742;7.090;2023-07-22T06:23:58;100957.47;;;19.73;52.63
81622;BME280;71029;50.742;7.090;2023-07-22T06:26:24;100960.84;;;19.75;52.57
81622;BME280;71029;50.742;7.090;2023-07-22T06:28:52;100954.38;;;19.76;52.43
81622;BME280;71029;50.742;7.090;2023-07-22T06:31:18;100958.97;;;19.75;52.76
81622;BME280;71029;50.742;7.090;2023-07-22T06:33:45;100964.75;;;19.72;52.80
81622;BME280;71029;50.742;7.090;2023-07-22T06:36:11;100966.03;;;19.76;52.45
81622;BME280;71029;50.742;7.090;2023-07-22T06:38:38;100960.19;;;19.79;52.83
81622;BME280;71029;50.742;7.090;2023-07-22T06:41:04;100958.31;;;19.80;52.51
81622;BME280;71029;50.742;7.090;2023-07-22T06:43:31;100959.13;;;19.80;52.69
81622;BME280;71029;50.742;7.090;2023-07-22T06:45:58;100963.53;;;19.81;52.76
81622;BME280;71029;50.742;7.090;2023-07-22T06:48:24;100952.28;;;19.84;52.43
81622;BME280;71029;50.742;7.090;2023-07-22T06:50:51;100954.56;;;19.88;52.65
81622;BME280;71029;50.742;7.090;2023-07-22T06:53:18;100956.03;;;19.90;52.65
81622;BME280;71029;50.742;7.090;2023-07-22T06:55:48;100955.19;;;19.90;52.66
81622;BME280;71029;50.742;7.090;2023-07-22T06:58:16;100951.44;;;19.91;52.68
81622;BME280;71029;50.742;7.090;2023-07-22T07:00:42;100955.81;;;19.92;52.87
81622;BME280;71029;50.742;7.090;2023-07-22T07:03:09;100952.06;;;19.93;52.69
81622;BME280;71029;50.742;7.090;2023-07-22T07:05:36;100953.72;;;19.94;52.68
81622;BME280;71029;50.742;7.090;2023-07-22T07:08:03;100958.69;;;19.97;52.52
81622;BME280;71029;50.742;7.090;2023-07-22T07:10:30;100961.41;;;19.97;52.96
81622;BME280;71029;50.742;7.090;2023-07-22T07:12:56;100959.56;;;19.97;52.80
81622;BME280;71029;50.742;7.090;2023-07-22T07:15:23;100960.56;;;19.96;52.61
81622;BME280;71029;50.742;7.090;2023-07-22T07:17:49;100957.69;;;19.98;52.61
81622;BME280;71029;50.742;7.090;2023-07-22T07:20:16;100960.16;;;19.99;52.77
81622;BME280;71029;50.742;7.090;2023-07-22T07:22:42;100949.34;;;19.99;52.67
81622;BME280;71029;50.742;7.090;2023-07-22T07:25:09;100952.88;;;20.00;52.74
81622;BME280;71029;50.742;7.090;2023-07-22T07:27:37;100951.00;;;20.00;53.11
81622;BME280;71029;50.742;7.090;2023-07-22T07:30:04;100950.78;;;20.08;52.91
81622;BME280;71029;50.742;7.090;2023-07-22T07:32:31;100953.47;;;20.15;52.47
81622;BME280;71029;50.742;7.090;2023-07-22T07:34:58;100950.09;;;20.20;52.60
81622;BME280;71029;50.742;7.090;2023-07-22T07:37:25;100952.78;;;20.26;52.59
81622;BME280;71029;50.742;7.090;2023-07-22T07:39:51;100947.38;;;20.26;52.17
81622;BME280;71029;50.742;7.090;2023-07-22T07:42:18;100948.44;;;20.25;52.32
81622;BME280;71029;50.742;7.090;2023-07-22T07:44:45;100947.81;;;20.23;52.69
81622;BME280;71029;50.742;7.090;2023-07-22T07:47:12;100949.91;;;20.21;52.49
81622;BME280;71029;50.742;7.090;2023-07-22T07:49:38;100941.81;;;20.21;52.52
81622;BME280;71029;50.742;7.090;2023-07-22T07:52:05;100944.91;;;20.25;52.69
81622;BME280;71029;50.742;7.090;2023-07-22T07:54:32;100951.97;;;20.26;52.90
81622;BME280;71029;50.742;7.090;2023-07-22T07:56:58;100948.22;;;20.27;52.79
81622;BME280;71029;50.742;7.090;2023-07-22T07:59:25;100943.03;;;20.25;52.76
81622;BME280;71029;50.742;7.090;2023-07-22T08:01:52;100938.66;;;20.24;52.41
81622;BME280;71029;50.742;7.090;2023-07-22T08:04:19;100948.00;;;20.28;52.36
81622;BME280;71029;50.742;7.090;2023-07-22T08:06:45;100947.16;;;20.28;52.52
81622;BME280;71029;50.742;7.090;2023-07-22T08:09:12;100946.34;;;20.27;53.17
81622;BME280;71029;50.742;7.090;2023-07-22T08:11:45;100938.22;;;20.27;52.37
81622;BME280;71029;50.742;7.090;2023-07-22T08:14:12;100937.19;;;20.28;52.37
81622;BME280;71029;50.742;7.090;2023-07-22T08:16:40;100932.59;;;20.29;52.61
81622;BME280;71029;50.742;7.090;2023-07-22T08:19:06;100931.34;;;20.31;52.85
81622;BME280;71029;50.742;7.090;2023-07-22T08:21:32;100936.75;;;20.31;52.25
81622;BME280;71029;50.742;7.090;2023-07-22T08:23:59;100933.84;;;20.33;52.46
81622;BME280;71029;50.742;7.090;2023-07-22T08:26:26;100934.66;;;20.33;52.71
81622;BME280;71029;50.742;7.090;2023-07-22T08:28:52;100926.56;;;20.33;52.56
81622;BME280;71029;50.742;7.090;2023-07-22T08:31:19;100938.19;;;20.34;52.94
81622;BME280;71029;50.742;7.090;2023-07-22T08:33:45;100929.25;;;20.33;52.46
81622;BME280;71029;50.742;7.090;2023-07-22T08:36:12;100924.06;;;20.32;52.37
81622;BME280;71029;50.742;7.090;2023-07-22T08:38:38;100930.09;;;20.34;52.35
81622;BME280;71029;50.742;7.090;2023-07-22T08:41:05;100926.34;;;20.35;52.74
81622;BME280;71029;50.742;7.090;2023-07-22T08:43:33;100926.13;;;20.36;52.62
81622;BME280;71029;50.742;7.090;2023-07-22T08:46:01;100924.03;;;20.38;52.30
81622;BME280;71029;50.742;7.090;2023-07-22T08:48:30;100929.22;;;20.40;52.69
81622;BME280;71029;50.742;7.090;2023-07-22T08:51:04;100925.69;;;20.39;52.58
81622;BME280;71029;50.742;7.090;2023-07-22T08:53:31;100921.94;;;20.40;52.61
81622;BME280;71029;50.742;7.090;2023-07-22T08:56:00;100920.06;;;20.41;52.76
81622;BME280;71029;50.742;7.090;2023-07-22T08:58:28;100914.28;;;20.37;52.35
81622;BME280;71029;50.742;7.090;2023-07-22T09:00:55;100922.38;;;20.37;52.52
81622;BME280;71029;50.742;7.090;2023-07-22T09:03:22;100912.59;;;20.36;52.14
81622;BME280;71029;50.742;7.090;2023-07-22T09:05:49;100916.97;;;20.37;52.52
81622;BME280;71029;50.742;7.090;2023-07-22T09:08:15;100917.59;;;20.39;52.61
81622;BME280;71029;50.742;7.090;2023-07-22T09:10:44;100910.53;;;20.38;52.06
81622;BME280;71029;50.742;7.090;2023-07-22T09:13:13;100916.53;;;20.40;52.59
81622;BME280;71029;50.742;7.090;2023-07-22T09:15:41;100905.31;;;20.44;52.35
81622;BME280;71029;50.742;7.090;2023-07-22T09:18:07;100914.44;;;20.49;52.08
81622;BME280;71029;50.742;7.090;2023-07-22T09:20:34;100915.06;;;20.45;51.90
81622;BME280;71029;50.742;7.090;2023-07-22T09:23:01;100916.75;;;20.39;52.24
81622;BME280;71029;50.742;7.090;2023-07-22T09:25:39;100921.34;;;20.38;52.69
81622;BME280;71029;50.742;7.090;2023-07-22T09:28:06;100917.97;;;20.50;51.96
81622;BME280;71029;50.742;7.090;2023-07-22T09:30:38;100911.28;;;20.52;51.88
81622;BME280;71029;50.742;7.090;2023-07-22T09:33:07;100917.13;;;20.43;52.54
81622;BME280;71029;50.742;7.090;2023-07-22T09:35:47;100915.09;;;20.38;52.20
81622;BME280;71029;50.742;7.090;2023-07-22T09:38:14;100915.09;;;20.38;51.80
81622;BME280;71029;50.742;7.090;2023-07-22T09:40:43;100910.28;;;20.40;52.06
81622;BME280;71029;50.742;7.090;2023-07-22T09:43:11;100901.56;;;20.38;51.92
81622;BME280;71029;50.742;7.090;2023-07-22T09:45:40;100907.81;;;20.38;52.11
81622;BME280;71029;50.742;7.090;2023-07-22T09:48:09;100905.94;;;20.39;51.57
81622;BME280;71029;50.742;7.090;2023-07-22T09:50:36;100906.75;;;20.39;51.83
81622;BME280;71029;50.742;7.090;2023-07-22T09:53:03;100903.63;;;20.43;51.57
81622;BME280;71029;50.742;7.090;2023-07-22T09:55:32;100913.19;;;20.45;51.35
81622;BME280;71029;50.742;7.090;2023-07-22T09:58:02;100901.13;;;20.48;51.44
81622;BME280;71029;50.742;7.090;2023-07-22T10:00:30;100903.84;;;20.48;50.62
81622;BME280;71029;50.742;7.090;2023-07-22T10:02:59;100902.78;;;20.49;50.62
81622;BME280;71029;50.742;7.090;2023-07-22T10:05:27;100909.03;;;20.49;51.02
81622;BME280;71029;50.742;7.090;2023-07-22T10:07:56;100896.56;;;20.48;51.00
81622;BME280;71029;50.742;7.090;2023-07-22T10:10:31;100894.25;;;20.45;50.66
81622;BME280;71029;50.742;7.090;2023-07-22T10:12:58;100911.34;;;20.46;50.86
81622;BME280;71029;50.742;7.090;2023-07-22T10:15:27;100905.94;;;20.46;49.77
81622;BME280;71029;50.742;7.090;2023-07-22T10:17:55;100900.53;;;20.46;50.37
81622;BME280;71029;50.742;7.090;2023-07-22T10:20:23;100899.03;;;20.43;50.66
81622;BME280;71029;50.742;7.090;2023-07-22T10:22:51;100894.25;;;20.45;50.14
81622;BME280;71029;50.742;7.090;2023-07-22T10:25:19;100882.19;;;20.48;50.03
81622;BME280;71029;50.742;7.090;2023-07-22T10:27:48;100885.31;;;20.45;49.79
81622;BME280;71029;50.742;7.090;2023-07-22T10:30:16;100879.91;;;20.45;50.42
81622;BME280;71029;50.742;7.090;2023-07-22T10:32:46;100884.47;;;20.44;50.04
81622;BME280;71029;50.742;7.090;2023-07-22T10:35:40;100879.91;;;20.45;50.22
81622;BME280;71029;50.742;7.090;2023-07-22T10:38:13;100884.28;;;20.46;49.94
81622;BME280;71029;50.742;7.090;2023-07-22T10:40:47;100889.47;;;20.47;49.76
81622;BME280;71029;50.742;7.090;2023-07-22T10:43:16;100879.06;;;20.44;50.01
81622;BME280;71029;50.742;7.090;2023-07-22T10:45:54;100874.31;;;20.46;49.89
81622;BME280;71029;50.742;7.090;2023-07-22T10:48:25;100870.31;;;20.49;49.93
81622;BME280;71029;50.742;7.090;2023-07-22T10:50:54;100870.31;;;20.49;49.30
81622;BME280;71029;50.742;7.090;2023-07-22T11:01:31;100866.53;;;20.56;48.90
81622;BME280;71029;50.742;7.090;2023-07-22T11:12:15;100855.03;;;20.61;47.99
81622;BME280;71029;50.742;7.090;2023-07-22T11:14:50;100847.13;;;20.59;47.96
81622;BME280;71029;50.742;7.090;2023-07-22T11:17:18;100853.59;;;20.58;47.86
81622;BME280;71029;50.742;7.090;2023-07-22T11:19:54;100837.13;;;20.60;47.79
81622;BME280;71029;50.742;7.090;2023-07-22T11:22:21;100829.84;;;20.60;48.07
81622;BME280;71029;50.742;7.090;2023-07-22T11:24:48;100837.97;;;20.60;47.64
81622;BME280;71029;50.742;7.090;2023-07-22T11:27:15;100838.78;;;20.61;47.96
81622;BME280;71029;50.742;7.090;2023-07-22T11:29:41;100835.66;;;20.64;47.75
81622;BME280;71029;50.742;7.090;2023-07-22T11:32:19;100829.44;;;20.63;47.60
81622;BME280;71029;50.742;7.090;2023-07-22T11:34:47;100834.84;;;20.63;47.08
81622;BME280;71029;50.742;7.090;2023-07-22T11:37:14;100824.00;;;20.63;47.06
81622;BME280;71029;50.742;7.090;2023-07-22T11:39:41;100825.44;;;20.66;46.99
81622;BME280;71029;50.742;7.090;2023-07-22T11:42:11;100825.44;;;20.66;47.18
81622;BME280;71029;50.742;7.090;2023-07-22T11:44:38;100825.44;;;20.66;46.87
81622;BME280;71029;50.742;7.090;2023-07-22T11:47:06;100824.63;;;20.65;46.53
81622;BME280;71029;50.742;7.090;2023-07-22T11:49:47;100823.78;;;20.65;47.15
81622;BME280;71029;50.742;7.090;2023-07-22T11:52:17;100824.84;;;20.64;47.20
81622;BME280;71029;50.742;7.090;2023-07-22T11:54:45;100815.91;;;20.63;46.84
81622;BME280;71029;50.742;7.090;2023-07-22T11:57:21;100823.78;;;20.65;46.75
81622;BME280;71029;50.742;7.090;2023-07-22T11:59:52;100810.44;;;20.70;46.62
81622;BME280;71029;50.742;7.090;2023-07-22T12:04:59;100816.69;;;20.71;46.51
81622;BME280;71029;50.742;7.090;2023-07-22T12:07:27;100817.88;;;20.75;45.90
81622;BME280;71029;50.742;7.090;2023-07-22T12:09:55;100814.13;;;20.76;46.07
81622;BME280;71029;50.742;7.090;2023-07-22T12:12:36;100812.88;;;20.78;45.94
81622;BME280;71029;50.742;7.090;2023-07-22T12:15:08;100810.38;;;20.77;46.13
81622;BME280;71029;50.742;7.090;2023-07-22T12:17:48;100809.75;;;20.75;45.76
81622;BME280;71029;50.742;7.090;2023-07-22T12:20:16;100807.88;;;20.75;45.57
81622;BME280;71029;50.742;7.090;2023-07-22T12:22:43;100800.16;;;20.79;45.81
81622;BME280;71029;50.742;7.090;2023-07-22T12:25:10;100796.00;;;20.76;45.92
81622;BME280;71029;50.742;7.090;2023-07-22T12:27:37;100798.72;;;20.76;46.06
81622;BME280;71029;50.742;7.090;2023-07-22T12:30:05;100795.81;;;20.78;45.71
81622;BME280;71029;50.742;7.090;2023-07-22T12:32:33;100804.47;;;20.86;45.27
81622;BME280;71029;50.742;7.090;2023-07-22T12:35:00;100797.56;;;20.90;44.31
81622;BME280;71029;50.742;7.090;2023-07-22T12:37:26;100799.38;;;20.97;43.71
81622;BME280;71029;50.742;7.090;2023-07-22T12:39:55;100805.44;;;20.92;43.75
81622;BME280;71029;50.742;7.090;2023-07-22T12:42:22;100794.19;;;20.95;43.13
81622;BME280;71029;50.742;7.090;2023-07-22T12:44:48;100789.59;;;20.95;43.99
81622;BME280;71029;50.742;7.090;2023-07-22T12:47:15;100781.91;;;20.92;44.15
81622;BME280;71029;50.742;7.090;2023-07-22T12:49:42;100782.38;;;20.89;43.89
81622;BME280;71029;50.742;7.090;2023-07-22T12:52:08;100782.81;;;20.86;44.17
81622;BME280;71029;50.742;7.090;2023-07-22T12:54:36;100772.19;;;20.85;44.22
81622;BME280;71029;50.742;7.090;2023-07-22T12:57:02;100781.16;;;20.85;44.66
81622;BME280;71029;50.742;7.090;2023-07-22T12:59:29;100778.88;;;20.82;44.73
81622;BME280;71029;50.742;7.090;2023-07-22T13:01:55;100777.81;;;20.83;43.83
81622;BME280;71029;50.742;7.090;2023-07-22T13:04:24;100778.47;;;20.85;44.59
81622;BME280;71029;50.742;7.090;2023-07-22T13:06:51;100779.28;;;20.86;44.75
81622;BME280;71029;50.742;7.090;2023-07-22T13:09:18;100776.94;;;20.89;44.41
81622;BME280;71029;50.742;7.090;2023-07-22T13:11:45;100772.13;;;20.91;44.03